createdAt,value
2022-11-08T00:00:37.458Z,16.30
2022-11-08T00:01:41.459Z,15.73
2022-11-08T00:02:43.453Z,14.50
2022-11-08T00:03:45.306Z,15.36
2022-11-08T00:04:47.080Z,13.90
2022-11-08T00:06:07.292Z,14.29
2022-11-08T00:07:30.664Z,15.92
2022-11-08T00:08:50.882Z,14.84
2022-11-08T00:10:11.292Z,14.40
2022-11-08T00:11:31.387Z,13.90
2022-11-08T00:12:52.152Z,14.21
2022-11-08T00:14:00.140Z,14.70
2022-11-08T00:15:03.106Z,15.20
2022-11-08T00:16:05.081Z,14.70
2022-11-08T00:17:06.954Z,14.45
2022-11-08T00:18:08.673Z,14.34
2022-11-08T00:19:10.374Z,15.21
2022-11-08T00:20:12.161Z,14.20
2022-11-08T00:21:13.938Z,14.86
2022-11-08T00:22:17.310Z,14.85
2022-11-08T00:23:19.036Z,15.61
2022-11-08T00:24:20.834Z,14.75
2022-11-08T00:25:23.082Z,14.69
2022-11-08T00:26:24.815Z,15.16
2022-11-08T00:27:27.253Z,14.71
2022-11-08T00:28:28.999Z,14.79
2022-11-08T00:29:31.290Z,14.12
2022-11-08T00:30:33.050Z,14.57
2022-11-08T00:31:34.793Z,14.30
2022-11-08T00:32:36.537Z,14.27
2022-11-08T00:33:38.291Z,14.16
2022-11-08T00:34:40.253Z,13.95
2022-11-08T00:35:42.041Z,13.68
2022-11-08T00:36:43.849Z,16.50
2022-11-08T00:37:45.588Z,24.58
2022-11-08T00:38:47.341Z,20.58
2022-11-08T00:39:49.953Z,17.29
2022-11-08T00:40:51.692Z,14.11
2022-11-08T00:41:53.581Z,14.86
2022-11-08T00:42:55.395Z,15.19
2022-11-08T00:43:57.190Z,15.47
2022-11-08T00:44:58.959Z,16.88
2022-11-08T00:46:00.714Z,15.16
2022-11-08T00:47:03.558Z,15.23
2022-11-08T00:48:05.824Z,14.02
2022-11-08T00:49:08.696Z,13.53
2022-11-08T00:50:10.520Z,14.01
2022-11-08T00:51:12.824Z,13.84
2022-11-08T00:52:14.585Z,13.64
2022-11-08T00:53:16.501Z,13.05
2022-11-08T00:54:20.620Z,14.36
2022-11-08T00:55:22.359Z,13.60
2022-11-08T00:56:24.719Z,14.33
2022-11-08T00:57:46.898Z,14.47
2022-11-08T00:58:48.189Z,13.88
2022-11-08T00:59:50.302Z,14.10
2022-11-08T01:00:52.099Z,19.61
2022-11-08T01:01:54.021Z,18.38
2022-11-08T01:03:14.354Z,15.18
2022-11-08T01:04:19.418Z,14.60
2022-11-08T01:05:21.172Z,15.59
2022-11-08T01:06:25.169Z,15.33
2022-11-08T01:07:26.916Z,14.20
2022-11-08T01:08:28.829Z,14.07
2022-11-08T01:09:30.572Z,14.24
2022-11-08T01:10:32.515Z,15.18
2022-11-08T01:11:34.914Z,14.66
2022-11-08T01:12:36.668Z,13.24
2022-11-08T01:13:38.894Z,13.58
2022-11-08T01:14:40.602Z,14.63
2022-11-08T01:15:44.651Z,14.24
2022-11-08T01:16:46.481Z,14.21
2022-11-08T01:17:48.228Z,13.91
2022-11-08T01:18:53.023Z,13.35
2022-11-08T01:19:54.774Z,14.48
2022-11-08T01:20:56.512Z,13.30
2022-11-08T01:21:58.238Z,13.80
2022-11-08T01:23:00.010Z,14.26
2022-11-08T01:24:01.970Z,15.93
2022-11-08T01:25:04.519Z,23.96
2022-11-08T01:26:13.500Z,20.10
2022-11-08T01:27:15.265Z,15.64
2022-11-08T01:28:17.870Z,15.38
2022-11-08T01:29:20.003Z,14.61
2022-11-08T01:30:21.751Z,14.43
2022-11-08T01:31:27.634Z,14.60
2022-11-08T01:32:29.648Z,14.94
2022-11-08T01:33:31.516Z,15.75
2022-11-08T01:34:33.414Z,14.47
2022-11-08T01:35:37.130Z,14.26
2022-11-08T01:36:38.862Z,14.06
2022-11-08T01:37:40.631Z,15.13
2022-11-08T01:38:42.926Z,15.34
2022-11-08T01:39:44.729Z,14.00
2022-11-08T01:40:48.441Z,13.60
2022-11-08T01:41:50.221Z,14.27
2022-11-08T01:42:53.677Z,13.78
2022-11-08T01:43:58.757Z,13.32
2022-11-08T01:45:03.051Z,13.21
2022-11-08T01:46:19.634Z,12.30
2022-11-08T01:47:21.361Z,12.99
2022-11-08T01:48:26.657Z,13.51
2022-11-08T01:49:33.149Z,15.66
2022-11-08T01:50:34.895Z,14.53
2022-11-08T01:51:44.772Z,15.50
2022-11-08T01:52:52.140Z,14.94
2022-11-08T01:53:54.425Z,14.54
2022-11-08T01:55:02.611Z,14.02
2022-11-08T01:56:06.178Z,14.41
2022-11-08T01:57:14.457Z,14.84
2022-11-08T01:58:24.551Z,13.56
2022-11-08T01:59:26.833Z,13.81
2022-11-08T02:00:30.285Z,13.91
2022-11-08T02:01:32.263Z,14.32
2022-11-08T02:02:37.780Z,14.69
2022-11-08T02:03:41.734Z,14.67
2022-11-08T02:04:43.949Z,14.97
2022-11-08T02:05:47.262Z,14.26
2022-11-08T02:06:50.946Z,13.96
2022-11-08T02:08:04.816Z,14.83
2022-11-08T02:09:10.802Z,14.10
2022-11-08T02:10:12.646Z,15.40
2022-11-08T02:11:17.727Z,14.36
2022-11-08T02:12:23.206Z,14.29
2022-11-08T02:13:28.938Z,14.50
2022-11-08T02:14:31.087Z,14.50
2022-11-08T02:15:32.906Z,14.02
2022-11-08T02:16:34.656Z,14.72
2022-11-08T02:17:36.470Z,15.89
2022-11-08T02:18:39.562Z,17.14
2022-11-08T02:19:45.838Z,15.22
2022-11-08T02:21:14.087Z,14.11
2022-11-08T02:22:26.516Z,13.80
2022-11-08T02:23:52.381Z,14.36
2022-11-08T02:24:55.027Z,13.71
2022-11-08T02:25:56.782Z,12.81
2022-11-08T02:26:59.207Z,12.64
2022-11-08T02:28:00.905Z,13.17
2022-11-08T02:29:25.589Z,12.45
2022-11-08T02:30:38.476Z,13.71
2022-11-08T02:31:40.215Z,15.67
2022-11-08T02:32:42.988Z,14.63
2022-11-08T02:33:46.795Z,13.84
2022-11-08T02:34:58.153Z,15.07
2022-11-08T02:36:00.011Z,13.95
2022-11-08T02:37:04.003Z,13.35
2022-11-08T02:38:05.892Z,13.17
2022-11-08T02:39:07.627Z,13.13
2022-11-08T02:40:10.349Z,14.02
2022-11-08T02:41:12.708Z,12.80
2022-11-08T02:42:18.490Z,13.03
2022-11-08T02:43:21.841Z,13.00
2022-11-08T02:44:23.559Z,14.80
2022-11-08T02:45:25.264Z,14.93
2022-11-08T02:46:26.975Z,17.74
2022-11-08T02:47:28.713Z,25.16
2022-11-08T02:48:30.776Z,20.65
2022-11-08T02:49:32.522Z,20.06
2022-11-08T02:50:34.424Z,16.57
2022-11-08T02:51:36.208Z,14.84
2022-11-08T02:52:37.933Z,14.40
2022-11-08T02:53:39.723Z,15.16
2022-11-08T02:54:41.607Z,14.19
2022-11-08T02:55:43.687Z,14.66
2022-11-08T02:56:45.464Z,15.25
2022-11-08T02:57:47.192Z,14.05
2022-11-08T02:58:49.035Z,13.57
2022-11-08T02:59:50.801Z,15.16
2022-11-08T03:00:52.532Z,15.19
2022-11-08T03:01:54.430Z,16.74
2022-11-08T03:02:58.168Z,15.71
2022-11-08T03:04:00.092Z,15.46
2022-11-08T03:05:01.845Z,17.02
2022-11-08T03:06:03.867Z,15.67
2022-11-08T03:07:05.591Z,15.74
2022-11-08T03:08:07.324Z,14.07
2022-11-08T03:09:09.109Z,13.76
2022-11-08T03:10:12.090Z,12.23
2022-11-08T03:11:13.909Z,12.63
2022-11-08T03:12:15.995Z,12.91
2022-11-08T03:13:17.797Z,13.70
2022-11-08T03:14:19.580Z,14.09
2022-11-08T03:15:21.275Z,13.89
2022-11-08T03:16:23.136Z,14.63
2022-11-08T03:17:24.863Z,16.63
2022-11-08T03:18:26.560Z,16.27
2022-11-08T03:19:28.273Z,16.39
2022-11-08T03:20:33.171Z,17.55
2022-11-08T03:21:36.821Z,17.01
2022-11-08T03:22:38.620Z,17.95
2022-11-08T03:23:40.374Z,16.84
2022-11-08T03:24:42.119Z,17.61
2022-11-08T03:25:43.910Z,14.53
2022-11-08T03:26:45.720Z,13.91
2022-11-08T03:27:47.429Z,13.95
2022-11-08T03:28:49.215Z,13.55
2022-11-08T03:29:51.241Z,13.19
2022-11-08T03:30:53.220Z,12.96
2022-11-08T03:31:54.928Z,13.43
2022-11-08T03:32:56.964Z,13.31
2022-11-08T03:33:58.645Z,13.70
2022-11-08T03:35:00.956Z,13.71
2022-11-08T03:36:03.314Z,13.74
2022-11-08T03:37:05.913Z,14.15
2022-11-08T03:38:07.694Z,15.34
2022-11-08T03:39:11.580Z,14.69
2022-11-08T03:40:13.414Z,14.48
2022-11-08T03:41:15.216Z,13.81
2022-11-08T03:42:17.036Z,13.16
2022-11-08T03:43:19.019Z,12.99
2022-11-08T03:44:20.750Z,13.46
2022-11-08T03:45:22.747Z,13.57
2022-11-08T03:46:24.435Z,12.88
2022-11-08T03:47:26.121Z,13.04
2022-11-08T03:48:28.364Z,13.33
2022-11-08T03:49:30.079Z,13.19
2022-11-08T03:50:31.816Z,12.40
2022-11-08T03:51:33.576Z,13.44
2022-11-08T03:52:45.441Z,13.39
2022-11-08T03:53:47.179Z,13.88
2022-11-08T03:54:48.878Z,12.94
2022-11-08T03:55:50.655Z,13.03
2022-11-08T03:56:52.482Z,12.91
2022-11-08T03:57:55.630Z,13.08
2022-11-08T03:58:57.375Z,12.59
2022-11-08T03:59:59.062Z,12.27
2022-11-08T04:01:08.479Z,13.57
2022-11-08T04:02:10.400Z,11.80
2022-11-08T04:03:12.249Z,12.07
2022-11-08T04:04:14.059Z,12.23
2022-11-08T04:05:17.076Z,13.06
2022-11-08T04:06:18.806Z,13.75
2022-11-08T04:07:20.518Z,13.06
2022-11-08T04:08:22.338Z,12.88
2022-11-08T04:09:24.100Z,13.73
2022-11-08T04:10:25.883Z,14.13
2022-11-08T04:11:45.830Z,13.18
2022-11-08T04:13:06.158Z,13.79
2022-11-08T04:14:28.191Z,13.40
2022-11-08T04:15:31.521Z,12.37
2022-11-08T04:16:34.361Z,12.86
2022-11-08T04:17:54.523Z,13.12
2022-11-08T04:19:14.566Z,12.56
2022-11-08T04:20:34.865Z,12.53
2022-11-08T04:21:36.598Z,13.29
2022-11-08T04:22:38.370Z,13.95
2022-11-08T04:23:40.225Z,13.86
2022-11-08T04:24:41.997Z,13.47
2022-11-08T04:25:45.410Z,13.29
2022-11-08T04:26:47.169Z,13.59
2022-11-08T04:27:48.909Z,13.17
2022-11-08T04:28:50.654Z,13.16
2022-11-08T04:29:52.431Z,12.67
2022-11-08T04:30:56.673Z,13.56
2022-11-08T04:31:58.460Z,13.62
2022-11-08T04:33:02.271Z,12.93
2022-11-08T04:34:04.038Z,13.19
2022-11-08T04:35:05.913Z,12.45
2022-11-08T04:36:11.570Z,13.21
2022-11-08T04:37:13.237Z,13.17
2022-11-08T04:38:16.143Z,13.58
2022-11-08T04:39:18.165Z,12.99
2022-11-08T04:40:19.884Z,12.85
2022-11-08T04:41:24.508Z,13.53
2022-11-08T04:42:26.217Z,14.17
2022-11-08T04:43:28.634Z,13.75
2022-11-08T04:44:30.329Z,13.63
2022-11-08T04:45:32.065Z,14.07
2022-11-08T04:46:33.850Z,14.24
2022-11-08T04:47:40.127Z,13.25
2022-11-08T04:48:44.787Z,12.87
2022-11-08T04:49:46.490Z,13.07
2022-11-08T04:50:48.206Z,13.47
2022-11-08T04:51:50.227Z,13.51
2022-11-08T04:52:53.575Z,12.81
2022-11-08T04:53:57.817Z,14.02
2022-11-08T04:54:59.534Z,13.32
2022-11-08T04:56:03.335Z,14.33
2022-11-08T04:57:05.056Z,13.71
2022-11-08T04:58:06.743Z,13.79
2022-11-08T04:59:12.013Z,14.23
2022-11-08T05:00:15.745Z,13.98
2022-11-08T05:01:20.537Z,13.94
2022-11-08T05:02:22.594Z,13.66
2022-11-08T05:03:24.724Z,13.64
2022-11-08T05:04:26.617Z,12.88
2022-11-08T05:05:28.711Z,13.84
2022-11-08T05:06:32.003Z,13.78
2022-11-08T05:07:33.824Z,13.15
2022-11-08T05:08:35.541Z,13.30
2022-11-08T05:09:37.316Z,13.55
2022-11-08T05:10:39.036Z,13.65
2022-11-08T05:11:40.982Z,13.68
2022-11-08T05:12:43.087Z,13.51
2022-11-08T05:13:45.755Z,14.05
2022-11-08T05:14:47.853Z,14.47
2022-11-08T05:15:49.556Z,14.50
2022-11-08T05:16:51.367Z,14.64
2022-11-08T05:17:53.335Z,14.94
2022-11-08T05:18:55.234Z,15.16
2022-11-08T05:20:15.470Z,14.91
2022-11-08T05:21:38.355Z,14.20
2022-11-08T05:22:58.456Z,14.71
2022-11-08T05:24:01.996Z,15.33
2022-11-08T05:25:03.908Z,15.06
2022-11-08T05:26:06.930Z,14.72
2022-11-08T05:27:09.044Z,16.27
2022-11-08T05:28:10.809Z,15.10
2022-11-08T05:29:15.214Z,16.16
2022-11-08T05:30:17.001Z,15.59
2022-11-08T05:31:18.995Z,15.16
2022-11-08T05:32:20.826Z,15.04
2022-11-08T05:33:23.616Z,15.77
2022-11-08T05:34:25.534Z,14.57
2022-11-08T05:35:27.414Z,14.83
2022-11-08T05:36:30.094Z,15.36
2022-11-08T05:37:31.832Z,15.70
2022-11-08T05:38:34.253Z,15.15
2022-11-08T05:39:35.988Z,16.19
2022-11-08T05:40:38.166Z,15.20
2022-11-08T05:41:39.872Z,15.41
2022-11-08T05:42:41.658Z,15.47
2022-11-08T05:43:46.327Z,15.60
2022-11-08T05:44:48.020Z,15.04
2022-11-08T05:45:49.891Z,15.61
2022-11-08T05:46:51.617Z,15.61
2022-11-08T05:47:53.382Z,15.54
2022-11-08T05:48:55.196Z,15.39
2022-11-08T05:49:56.902Z,16.54
2022-11-08T05:50:58.862Z,15.03
2022-11-08T05:52:00.608Z,14.92
2022-11-08T05:53:02.425Z,14.64
2022-11-08T05:54:04.444Z,15.17
2022-11-08T05:55:06.972Z,14.88
2022-11-08T05:56:10.111Z,14.36
2022-11-08T05:57:12.248Z,14.64
2022-11-08T05:58:14.043Z,15.57
2022-11-08T05:59:15.766Z,16.21
2022-11-08T06:00:18.041Z,16.14
2022-11-08T06:01:20.991Z,15.88
2022-11-08T06:02:22.832Z,15.13
2022-11-08T06:03:25.060Z,15.34
2022-11-08T06:04:27.171Z,16.36
2022-11-08T06:05:28.969Z,16.71
2022-11-08T06:06:30.736Z,16.56
2022-11-08T06:07:32.489Z,16.12
2022-11-08T06:08:34.903Z,15.91
2022-11-08T06:09:36.635Z,15.84
2022-11-08T06:10:38.368Z,15.63
2022-11-08T06:11:40.119Z,16.16
2022-11-08T06:12:41.921Z,15.88
2022-11-08T06:13:44.214Z,15.89
2022-11-08T06:14:46.073Z,16.19
2022-11-08T06:15:47.804Z,17.02
2022-11-08T06:16:49.699Z,16.58
2022-11-08T06:17:51.409Z,16.54
2022-11-08T06:18:53.289Z,16.27
2022-11-08T06:19:55.109Z,16.53
2022-11-08T06:21:01.550Z,16.56
2022-11-08T06:22:03.594Z,16.19
2022-11-08T06:23:05.342Z,15.91
2022-11-08T06:24:07.407Z,16.04
2022-11-08T06:25:10.885Z,16.80
2022-11-08T06:26:12.953Z,16.94
2022-11-08T06:27:15.849Z,16.10
2022-11-08T06:28:17.839Z,15.96
2022-11-08T06:29:19.793Z,15.61
2022-11-08T06:30:21.632Z,15.90
2022-11-08T06:31:24.036Z,15.84
2022-11-08T06:32:25.743Z,16.76
2022-11-08T06:33:27.841Z,16.80
2022-11-08T06:34:29.620Z,16.91
2022-11-08T06:35:31.605Z,17.03
2022-11-08T06:36:33.312Z,16.60
2022-11-08T06:37:35.027Z,16.79
2022-11-08T06:38:37.302Z,16.02
2022-11-08T06:39:39.184Z,15.94
2022-11-08T06:40:41.007Z,16.02
2022-11-08T06:41:42.741Z,16.27
2022-11-08T06:42:44.462Z,16.95
2022-11-08T06:43:46.316Z,16.54
2022-11-08T06:44:48.065Z,15.67
2022-11-08T06:45:49.799Z,16.19
2022-11-08T06:46:51.531Z,16.23
2022-11-08T06:48:03.698Z,16.81
2022-11-08T06:49:05.571Z,15.64
2022-11-08T06:50:07.626Z,16.76
2022-11-08T06:51:09.408Z,16.81
2022-11-08T06:52:11.109Z,16.51
2022-11-08T06:53:15.068Z,16.03
2022-11-08T06:54:17.990Z,16.34
2022-11-08T06:55:19.922Z,16.31
2022-11-08T06:56:21.649Z,15.79
2022-11-08T06:57:23.473Z,16.06
2022-11-08T06:58:25.253Z,15.09
2022-11-08T06:59:27.537Z,15.53
2022-11-08T07:00:29.743Z,16.08
2022-11-08T07:01:31.717Z,14.99
2022-11-08T07:02:33.635Z,15.91
2022-11-08T07:03:35.547Z,14.72
2022-11-08T07:04:37.372Z,14.50
2022-11-08T07:05:39.112Z,15.84
2022-11-08T07:06:41.210Z,15.55
2022-11-08T07:07:42.938Z,16.17
2022-11-08T07:08:44.672Z,15.67
2022-11-08T07:09:46.372Z,15.21
2022-11-08T07:10:48.090Z,16.59
2022-11-08T07:11:49.802Z,16.17
2022-11-08T07:13:04.754Z,15.99
2022-11-08T07:14:06.600Z,15.76
2022-11-08T07:15:08.573Z,15.10
2022-11-08T07:16:10.371Z,15.59
2022-11-08T07:17:12.181Z,15.48
2022-11-08T07:18:15.993Z,15.65
2022-11-08T07:19:17.891Z,15.23
2022-11-08T07:20:19.695Z,14.58
2022-11-08T07:21:22.962Z,14.88
2022-11-08T07:22:24.719Z,15.01
2022-11-08T07:23:26.878Z,14.79
2022-11-08T07:24:28.614Z,15.56
2022-11-08T07:25:31.036Z,15.56
2022-11-08T07:26:32.817Z,15.23
2022-11-08T07:27:34.676Z,16.17
2022-11-08T07:28:36.790Z,15.40
2022-11-08T07:29:38.686Z,15.43
2022-11-08T07:30:40.473Z,15.23
2022-11-08T07:31:42.231Z,14.54
2022-11-08T07:32:43.976Z,15.07
2022-11-08T07:33:45.791Z,15.29
2022-11-08T07:34:47.520Z,14.43
2022-11-08T07:35:49.416Z,14.36
2022-11-08T07:36:51.156Z,15.12
2022-11-08T07:37:53.253Z,15.20
2022-11-08T07:38:55.115Z,14.47
2022-11-08T07:39:56.967Z,15.02
2022-11-08T07:41:01.340Z,15.57
2022-11-08T07:42:05.310Z,15.28
2022-11-08T07:43:12.650Z,14.98
2022-11-08T07:44:14.952Z,14.89
2022-11-08T07:45:16.813Z,14.69
2022-11-08T07:46:18.641Z,14.60
2022-11-08T07:47:20.353Z,13.14
2022-11-08T07:48:22.593Z,14.63
2022-11-08T07:49:24.536Z,14.19
2022-11-08T07:50:26.742Z,13.23
2022-11-08T07:51:28.594Z,13.30
2022-11-08T07:52:30.610Z,13.32
2022-11-08T07:53:32.329Z,13.02
2022-11-08T07:54:34.412Z,13.92
2022-11-08T07:55:37.763Z,14.24
2022-11-08T07:56:39.528Z,14.23
2022-11-08T07:57:41.231Z,13.76
2022-11-08T07:58:42.947Z,13.08
2022-11-08T07:59:45.046Z,13.01
2022-11-08T08:00:49.780Z,12.69
2022-11-08T08:01:51.535Z,13.50
2022-11-08T08:03:00.756Z,12.93
2022-11-08T08:04:02.589Z,12.65
2022-11-08T08:05:04.724Z,12.40
2022-11-08T08:06:06.592Z,13.40
2022-11-08T08:07:08.545Z,13.09
2022-11-08T08:08:12.520Z,13.21
2022-11-08T08:09:14.308Z,13.31
2022-11-08T08:10:16.406Z,13.49
2022-11-08T08:11:18.091Z,13.32
2022-11-08T08:12:19.820Z,13.73
2022-11-08T08:13:21.761Z,13.52
2022-11-08T08:14:23.562Z,13.79
2022-11-08T08:15:26.502Z,12.65
2022-11-08T08:16:28.256Z,11.92
2022-11-08T08:17:30.363Z,13.01
2022-11-08T08:18:32.221Z,12.53
2022-11-08T08:19:33.977Z,13.35
2022-11-08T08:20:37.430Z,12.36
2022-11-08T08:21:39.217Z,12.62
2022-11-08T08:22:52.034Z,12.69
2022-11-08T08:23:53.776Z,12.92
2022-11-08T08:24:59.238Z,11.97
2022-11-08T08:26:03.715Z,12.08
2022-11-08T08:27:05.408Z,11.98
2022-11-08T08:28:07.137Z,11.70
2022-11-08T08:29:08.866Z,11.89
2022-11-08T08:30:10.761Z,12.29
2022-11-08T08:31:13.304Z,12.27
2022-11-08T08:32:14.984Z,11.67
2022-11-08T08:33:33.458Z,11.39
2022-11-08T08:34:35.209Z,11.65
2022-11-08T08:35:38.429Z,11.41
2022-11-08T08:36:40.471Z,11.03
2022-11-08T08:37:42.202Z,11.41
2022-11-08T08:38:44.832Z,11.83
2022-11-08T08:39:46.940Z,10.70
2022-11-08T08:40:48.758Z,10.90
2022-11-08T08:41:50.946Z,10.51
2022-11-08T08:42:52.932Z,10.71
2022-11-08T08:43:55.614Z,10.51
2022-11-08T08:44:57.290Z,10.72
2022-11-08T08:46:00.991Z,10.69
2022-11-08T08:47:02.882Z,11.15
2022-11-08T08:48:04.868Z,11.42
2022-11-08T08:49:06.567Z,11.42
2022-11-08T08:50:08.696Z,11.13
2022-11-08T08:51:10.580Z,10.44
2022-11-08T08:52:12.407Z,10.95
2022-11-08T08:53:14.121Z,11.12
2022-11-08T08:54:15.801Z,10.34
2022-11-08T08:55:17.911Z,11.08
2022-11-08T08:56:19.612Z,11.19
2022-11-08T08:57:21.456Z,11.13
2022-11-08T08:58:23.359Z,10.77
2022-11-08T09:02:17.296Z,9.61
2022-11-08T09:03:19.604Z,9.77
2022-11-08T09:04:21.646Z,9.49
2022-11-08T09:05:23.311Z,9.81
2022-11-08T09:06:25.256Z,9.77
2022-11-08T09:07:27.107Z,10.61
2022-11-08T09:08:29.273Z,10.36
2022-11-08T09:09:31.000Z,10.06
2022-11-08T09:10:32.910Z,10.62
2022-11-08T09:11:34.654Z,9.92
2022-11-08T09:12:37.904Z,9.51
2022-11-08T09:13:39.570Z,10.17
2022-11-08T09:14:41.265Z,10.05
2022-11-08T09:15:42.936Z,9.40
2022-11-08T09:16:44.602Z,10.36
2022-11-08T09:17:46.527Z,9.75
2022-11-08T09:18:48.817Z,9.65
2022-11-08T09:19:55.925Z,9.44
2022-11-08T09:20:59.907Z,9.04
2022-11-08T09:22:01.733Z,8.97
2022-11-08T09:23:03.932Z,9.42
2022-11-08T09:24:05.971Z,9.28
2022-11-08T09:25:07.995Z,9.46
2022-11-08T09:26:10.718Z,9.69
2022-11-08T09:27:12.457Z,9.69
2022-11-08T09:28:14.312Z,9.25
2022-11-08T09:29:16.274Z,8.75
2022-11-08T09:30:17.989Z,9.09
2022-11-08T09:31:19.729Z,8.51
2022-11-08T09:32:39.324Z,9.08
2022-11-08T09:33:44.145Z,8.63
2022-11-08T09:34:45.892Z,9.39
2022-11-08T09:35:48.467Z,9.36
2022-11-08T09:36:50.207Z,9.83
2022-11-08T09:37:55.540Z,9.11
2022-11-08T09:38:57.228Z,9.38
2022-11-08T09:39:59.002Z,9.04
2022-11-08T09:41:55.622Z,9.06
2022-11-08T09:43:06.204Z,9.43
2022-11-08T09:44:36.377Z,8.99
2022-11-08T09:45:46.443Z,9.14
2022-11-08T09:46:56.483Z,8.30
2022-11-08T09:48:05.356Z,8.52
2022-11-08T09:49:19.950Z,8.92
2022-11-08T09:50:30.625Z,8.81
2022-11-08T09:51:35.761Z,8.49
2022-11-08T09:52:41.669Z,8.04
2022-11-08T09:53:52.375Z,8.23
2022-11-08T09:55:41.255Z,8.67
2022-11-08T09:56:44.269Z,8.33
2022-11-08T09:58:20.994Z,8.74
2022-11-08T09:59:41.129Z,9.24
2022-11-08T10:00:43.074Z,8.64
2022-11-08T10:01:44.829Z,8.95
2022-11-08T10:02:47.063Z,8.99
2022-11-08T10:03:54.086Z,8.57
2022-11-08T10:05:00.695Z,8.36
2022-11-08T10:06:18.345Z,8.27
2022-11-08T10:07:41.957Z,7.63
2022-11-08T10:09:09.772Z,7.91
2022-11-08T10:10:29.967Z,8.33
2022-11-08T10:11:57.938Z,8.45
2022-11-08T10:13:33.432Z,7.90
2022-11-08T10:14:59.734Z,8.08
2022-11-08T10:16:23.210Z,7.76
2022-11-08T10:17:48.116Z,8.30
2022-11-08T10:19:10.489Z,7.62
2022-11-08T10:20:54.842Z,7.64
2022-11-08T10:22:12.233Z,7.78
2022-11-08T10:23:30.312Z,8.03
2022-11-08T10:24:35.729Z,7.64
2022-11-08T10:25:47.637Z,7.52
2022-11-08T10:26:53.131Z,7.26
2022-11-08T10:27:59.489Z,7.38
2022-11-08T10:29:15.535Z,7.43
2022-11-08T10:30:26.691Z,7.27
2022-11-08T10:31:35.125Z,8.06
2022-11-08T10:32:37.233Z,7.52
2022-11-08T10:33:43.142Z,7.22
2022-11-08T10:35:16.209Z,7.26
2022-11-08T10:36:31.541Z,7.30
2022-11-08T10:37:33.782Z,7.09
2022-11-08T10:39:10.645Z,7.48
2022-11-08T10:40:24.971Z,6.80
2022-11-08T10:41:58.319Z,7.34
2022-11-08T10:43:17.120Z,7.72
2022-11-08T10:44:23.770Z,7.12
2022-11-08T10:45:25.480Z,7.01
2022-11-08T10:46:41.668Z,7.09
2022-11-08T10:47:46.179Z,7.27
2022-11-08T10:48:47.881Z,6.49
2022-11-08T10:49:49.597Z,6.76
2022-11-08T10:50:53.800Z,6.66
2022-11-08T10:52:01.335Z,6.84
2022-11-08T10:53:04.488Z,7.36
2022-11-08T10:55:33.467Z,7.25
2022-11-08T10:56:55.913Z,6.66
2022-11-08T10:57:57.677Z,6.19
2022-11-08T10:58:59.555Z,6.29
2022-11-08T11:00:16.590Z,6.35
2022-11-08T11:01:22.561Z,6.13
2022-11-08T11:02:26.177Z,5.87
2022-11-08T11:03:30.378Z,5.66
2022-11-08T11:04:34.736Z,5.75
2022-11-08T11:05:58.844Z,5.65
2022-11-08T11:07:32.402Z,6.07
2022-11-08T11:08:34.530Z,6.57
2022-11-08T11:09:36.270Z,5.69
2022-11-08T11:10:41.683Z,6.05
2022-11-08T11:11:43.517Z,6.31
2022-11-08T11:12:51.138Z,5.93
2022-11-08T11:14:21.922Z,5.96
2022-11-08T11:15:24.086Z,6.43
2022-11-08T11:16:25.869Z,6.45
2022-11-08T11:17:37.286Z,27.83
2022-11-08T11:18:50.859Z,26.73
2022-11-08T11:19:57.571Z,26.06
2022-11-08T11:21:13.200Z,8.77
2022-11-08T11:22:15.116Z,6.33
2022-11-08T11:23:16.965Z,5.91
2022-11-08T11:24:20.867Z,5.87
2022-11-08T11:25:24.079Z,8.47
2022-11-08T11:26:34.560Z,10.67
2022-11-08T11:27:38.586Z,7.95
2022-11-08T11:29:04.011Z,6.13
2022-11-08T11:30:22.685Z,13.69
2022-11-08T11:31:24.473Z,12.39
2022-11-08T11:32:34.773Z,7.08
2022-11-08T11:33:45.145Z,5.86
2022-11-08T11:34:53.649Z,5.67
2022-11-08T11:36:12.267Z,5.67
2022-11-08T11:37:41.900Z,5.54
2022-11-08T11:39:00.002Z,6.44
2022-11-08T11:40:19.770Z,5.73
2022-11-08T11:41:43.194Z,6.38
2022-11-08T11:43:04.844Z,5.98
2022-11-08T11:44:23.525Z,7.87
2022-11-08T11:45:36.326Z,5.51
2022-11-08T11:46:56.854Z,6.65
2022-11-08T11:48:04.854Z,6.16
2022-11-08T11:49:16.797Z,6.22
2022-11-08T11:50:21.398Z,10.58
2022-11-08T11:51:30.444Z,11.75
2022-11-08T11:52:32.299Z,8.79
2022-11-08T11:53:38.812Z,9.78
2022-11-08T11:54:41.849Z,12.96
2022-11-08T11:55:54.023Z,26.62
2022-11-08T11:57:31.804Z,11.70
2022-11-08T11:58:55.228Z,5.51
2022-11-08T12:00:10.124Z,7.81
2022-11-08T12:01:32.348Z,26.10
2022-11-08T12:02:59.951Z,42.94
2022-11-08T12:04:30.949Z,16.21
2022-11-08T12:05:54.746Z,16.10
2022-11-08T12:07:21.985Z,7.26
2022-11-08T12:08:47.592Z,5.49
2022-11-08T12:10:04.196Z,6.03
2022-11-08T12:11:24.227Z,6.07
2022-11-08T12:12:59.317Z,5.33
2022-11-08T12:14:41.381Z,5.09
2022-11-08T12:16:06.597Z,6.24
2022-11-08T12:17:34.633Z,5.30
2022-11-08T12:19:08.328Z,5.33
2022-11-08T12:20:26.879Z,9.07
2022-11-08T12:21:50.242Z,6.21
2022-11-08T12:23:19.586Z,5.47
2022-11-08T12:24:32.907Z,5.66
2022-11-08T12:25:43.341Z,4.80
2022-11-08T12:27:00.240Z,4.53
2022-11-08T12:28:42.399Z,4.69
2022-11-08T12:29:58.310Z,6.74
2022-11-08T12:31:27.982Z,15.49
2022-11-08T12:32:39.088Z,9.97
2022-11-08T12:33:57.781Z,12.26
2022-11-08T12:35:31.072Z,9.41
2022-11-08T12:36:47.086Z,13.54
2022-11-08T12:37:57.764Z,13.62
2022-11-08T12:39:25.650Z,17.29
2022-11-08T12:40:44.736Z,11.64
2022-11-08T12:41:56.838Z,9.74
2022-11-08T12:43:18.752Z,8.36
2022-11-08T12:44:32.532Z,26.59
2022-11-08T12:45:56.453Z,12.92
2022-11-08T12:47:23.025Z,4.63
2022-11-08T12:48:46.067Z,5.14
2022-11-08T12:50:17.657Z,4.82
2022-11-08T12:51:49.329Z,13.01
2022-11-08T12:53:14.492Z,12.56
2022-11-08T12:54:25.459Z,15.06
2022-11-08T12:55:40.360Z,9.55
2022-11-08T12:56:45.600Z,8.38
2022-11-08T12:57:48.362Z,4.59
2022-11-08T12:58:55.389Z,7.19
2022-11-08T13:00:08.553Z,5.18
2022-11-08T13:01:13.522Z,4.53
2022-11-08T13:02:23.237Z,4.40
2022-11-08T13:03:43.109Z,3.83
2022-11-08T13:04:59.968Z,4.13
2022-11-08T13:06:12.598Z,4.67
2022-11-08T13:07:34.481Z,4.21
2022-11-08T13:08:52.405Z,3.42
2022-11-08T13:10:12.416Z,3.47
2022-11-08T13:11:24.844Z,3.33
2022-11-08T13:12:36.876Z,3.41
2022-11-08T13:13:54.806Z,3.35
2022-11-08T13:15:00.272Z,3.66
2022-11-08T13:16:23.433Z,3.92
2022-11-08T13:17:27.981Z,3.33
2022-11-08T13:18:35.332Z,3.30
2022-11-08T13:19:52.173Z,3.27
2022-11-08T13:20:53.960Z,3.38
2022-11-08T13:21:56.093Z,3.27
2022-11-08T13:23:00.265Z,3.25
2022-11-08T13:24:09.924Z,3.31
2022-11-08T13:25:18.732Z,3.32
2022-11-08T13:26:24.219Z,3.17
2022-11-08T13:27:38.031Z,3.57
2022-11-08T13:28:42.981Z,3.57
2022-11-08T13:29:44.746Z,3.42
2022-11-08T13:31:01.501Z,3.75
2022-11-08T13:32:17.689Z,3.12
2022-11-08T13:33:29.288Z,3.36
2022-11-08T13:34:54.310Z,3.44
2022-11-08T13:36:08.671Z,3.26
2022-11-08T13:37:21.224Z,3.73
2022-11-08T13:38:41.960Z,3.71
2022-11-08T13:40:07.625Z,4.01
2022-11-08T13:41:21.633Z,3.98
2022-11-08T13:42:23.728Z,3.44
2022-11-08T13:43:29.690Z,3.50
2022-11-08T13:44:55.922Z,3.33
2022-11-08T13:46:19.976Z,3.67
2022-11-08T13:47:33.784Z,3.83
2022-11-08T13:48:40.246Z,3.48
2022-11-08T13:49:41.913Z,3.64
2022-11-08T13:50:50.914Z,3.89
2022-11-08T13:52:31.323Z,3.84
2022-11-08T13:53:47.499Z,4.00
2022-11-08T13:54:51.327Z,3.78
2022-11-08T13:55:58.729Z,4.10
2022-11-08T13:57:02.205Z,4.00
2022-11-08T13:58:04.017Z,3.69
2022-11-08T13:59:31.882Z,3.49
2022-11-08T14:00:46.234Z,3.15
2022-11-08T14:01:48.014Z,3.85
2022-11-08T14:02:49.811Z,3.91
2022-11-08T14:03:51.418Z,4.09
2022-11-08T14:04:54.488Z,4.30
2022-11-08T14:06:00.508Z,4.71
2022-11-08T14:07:22.104Z,4.31
2022-11-08T14:08:30.629Z,4.28
2022-11-08T14:10:01.307Z,4.58
2022-11-08T14:11:20.438Z,4.33
2022-11-08T14:12:37.926Z,4.77
2022-11-08T14:14:02.018Z,4.57
2022-11-08T14:15:31.287Z,4.24
2022-11-08T14:16:46.334Z,4.47
2022-11-08T14:17:55.646Z,4.55
2022-11-08T14:19:18.786Z,4.68
2022-11-08T14:20:39.601Z,5.06
2022-11-08T14:21:48.818Z,4.59
2022-11-08T14:22:51.353Z,4.11
2022-11-08T14:23:53.586Z,3.71
2022-11-08T14:25:23.137Z,3.51
2022-11-08T14:26:25.469Z,3.87
2022-11-08T14:27:39.049Z,4.14
2022-11-08T14:28:46.668Z,4.69
2022-11-08T14:30:00.273Z,4.57
2022-11-08T14:31:05.537Z,4.50
2022-11-08T14:32:18.280Z,4.63
2022-11-08T14:33:24.202Z,4.65